Time;durP1;ratioP1;P1;durP2;ratioP2;P2;SDS_P1;SDS_P2;PMS_P1;PMS_P2;Temp;Humidity;BMP_temperature;BMP_pressure;BME280_temperature;BME280_humidity;BME280_pressure;Samples;Min_cycle;Max_cycle;Signal;HPM_P1;HPM_P2
2023/10/03 00:02:05;;;;;;;29.57;13.17;;;;;;;15.77;100.00;150037.47;4917912;29;20263;-55
2023/10/03 00:04:32;;;;;;;30.97;13.10;;;;;;;15.90;99.51;150068.78;4916682;28;20309;-54
2023/10/03 00:07:04;;;;;;;26.10;12.53;;;;;;;15.91;96.75;150071.22;4936532;28;20242;-53
2023/10/03 00:09:32;;;;;;;24.50;12.07;;;;;;;15.88;98.09;150065.00;4920044;28;20233;-55
2023/10/03 00:12:05;;;;;;;25.23;11.80;;;;;;;16.02;96.63;150098.72;4918166;28;20311;-55
2023/10/03 00:14:33;;;;;;;27.93;12.93;;;;;;;16.07;95.99;150110.00;4915242;28;20729;-54
2023/10/03 00:17:04;;;;;;;30.33;11.53;;;;;;;16.25;93.09;150152.50;4921367;28;20239;-55
2023/10/03 00:19:31;;;;;;;25.77;11.33;;;;;;;16.44;89.24;150199.94;4917533;28;20636;-52
2023/10/03 00:22:22;;;;;;;27.90;11.10;;;;;;;16.35;91.06;150177.50;4915083;28;20363;-54
2023/10/03 00:24:49;;;;;;;26.60;11.80;;;;;;;16.40;91.47;150188.72;4919294;28;20259;-55
2023/10/03 00:27:16;;;;;;;27.07;11.33;;;;;;;16.38;90.70;150185.00;4916081;28;20888;-55
2023/10/03 00:29:45;;;;;;;24.80;11.10;;;;;;;16.32;91.26;150171.22;4917189;28;20319;-53
2023/10/03 00:32:11;;;;;;;25.20;11.43;;;;;;;16.40;89.48;150190.00;4921569;28;20246;-53
2023/10/03 00:34:41;;;;;;;22.80;11.17;;;;;;;16.43;89.02;150197.44;4930001;28;20219;-54
2023/10/03 00:37:07;;;;;;;21.73;10.17;;;;;;;16.37;88.91;150183.72;4926213;28;20243;-53
2023/10/03 00:39:34;;;;;;;21.40;9.90;;;;;;;16.44;89.38;150199.94;4917656;28;20228;-52
2023/10/03 00:42:05;;;;;;;27.53;11.37;;;;;;;16.34;90.50;150176.22;4938640;28;20751;-55
2023/10/03 00:44:31;;;;;;;22.27;10.57;;;;;;;16.26;89.92;150156.22;4917444;28;20250;-52
2023/10/03 00:47:07;;;;;;;23.13;10.20;;;;;;;16.14;91.21;150126.22;4921217;28;20253;-53
2023/10/03 00:49:34;;;;;;;24.93;10.10;;;;;;;16.32;88.01;150170.00;4919343;28;20231;-54
2023/10/03 00:52:05;;;;;;;20.80;9.47;;;;;;;16.26;89.60;150155.00;4918788;28;21168;-55
2023/10/03 00:54:32;;;;;;;20.07;9.80;;;;;;;16.20;89.92;150142.50;4918568;28;20228;-53
2023/10/03 00:57:05;;;;;;;18.97;9.10;;;;;;;16.30;87.80;150166.22;4932595;28;20640;-55
2023/10/03 00:59:33;;;;;;;18.40;9.13;;;;;;;16.27;88.43;150158.72;4929306;28;20219;-52
2023/10/03 01:02:07;;;;;;;17.83;8.43;;;;;;;16.27;86.38;150158.72;4917060;28;20247;-56
2023/10/03 01:04:36;;;;;;;17.47;8.03;;;;;;;16.26;86.64;150156.22;4916221;28;20253;-55
2023/10/03 01:07:04;;;;;;;15.13;7.70;;;;;;;17.96;69.26;150567.66;4918510;28;20258;-56
2023/10/03 01:09:33;;;;;;;18.27;6.83;;;;;;;19.36;60.73;150905.69;4922071;28;20230;-55
2023/10/03 01:12:06;;;;;;;12.97;6.40;;;;;;;19.71;57.93;150989.59;4935539;28;20265;-55
2023/10/03 01:14:34;;;;;;;15.97;6.83;;;;;;;19.51;61.51;150940.75;4915678;28;20283;-56
2023/10/03 01:17:06;;;;;;;15.90;6.83;;;;;;;20.02;57.14;151066.03;4920150;28;20227;-53
2023/10/03 01:19:34;;;;;;;12.57;6.07;;;;;;;19.99;56.87;151058.50;4921138;28;20243;-53
2023/10/03 01:22:06;;;;;;;14.70;6.40;;;;;;;20.60;53.70;151205.06;4934758;28;20236;-55
2023/10/03 01:24:34;;;;;;;12.50;6.07;;;;;;;20.44;54.64;151166.25;4916040;28;20289;-54
2023/10/03 01:27:05;;;;;;;11.30;5.57;;;;;;;20.25;54.27;151121.16;4934057;28;20311;-54
2023/10/03 01:29:32;;;;;;;11.17;5.57;;;;;;;20.18;55.96;151104.84;4915534;28;20834;-54
2023/10/03 01:32:04;;;;;;;12.17;5.87;;;;;;;20.40;53.77;151157.47;4918539;28;20740;-55
2023/10/03 01:34:33;;;;;;;11.30;5.53;;;;;;;20.43;53.27;151164.97;4916798;28;20246;-55
2023/10/03 01:37:04;;;;;;;11.43;5.50;;;;;;;20.71;52.03;151231.38;4917912;28;20229;-53
2023/10/03 01:39:31;;;;;;;12.43;5.60;;;;;;;20.73;51.40;151237.66;4914006;28;20234;-53
2023/10/03 01:42:06;;;;;;;10.73;5.17;;;;;;;21.15;49.98;151337.97;4917371;28;20702;-52
2023/10/03 01:44:34;;;;;;;12.30;5.60;;;;;;;21.00;50.00;151302.88;4912466;28;20225;-55
2023/10/03 01:47:04;;;;;;;9.43;4.57;;;;;;;20.88;50.69;151274.03;4925376;28;20228;-53
2023/10/03 01:49:31;;;;;;;10.03;4.97;;;;;;;20.76;51.08;151243.91;4915436;28;20247;-55
2023/10/03 01:52:22;;;;;;;8.80;4.87;;;;;;;20.87;50.74;151271.53;4914211;28;20249;-53
2023/10/03 01:54:50;;;;;;;10.20;5.00;;;;;;;21.11;49.16;151327.94;4923238;28;20280;-55
2023/10/03 01:57:18;;;;;;;9.07;5.03;;;;;;;21.11;49.60;151329.19;4937013;28;20342;-54
2023/10/03 01:59:45;;;;;;;8.30;4.50;;;;;;;21.15;49.81;151337.97;4915634;28;20250;-55
2023/10/03 02:02:12;;;;;;;8.27;4.37;;;;;;;21.55;47.69;151434.50;4918792;29;20266;-56
2023/10/03 02:04:38;;;;;;;8.67;4.93;;;;;;;21.66;47.27;151462.13;4933617;28;20228;-55
2023/10/03 02:07:06;;;;;;;12.93;5.07;;;;;;;21.56;47.49;151438.22;4919359;28;20253;-56
2023/10/03 02:09:32;;;;;;;10.47;5.07;;;;;;;21.75;46.64;151484.66;4922687;28;20231;-56
2023/10/03 02:12:06;;;;;;;10.23;4.87;;;;;;;22.11;45.56;151572.44;4918358;28;20249;-55
2023/10/03 02:14:34;;;;;;;7.50;4.60;;;;;;;21.92;46.61;151526.06;4910562;28;20225;-55
2023/10/03 02:17:05;;;;;;;8.73;4.77;;;;;;;21.80;46.58;151495.97;4930290;28;20267;-53
2023/10/03 02:19:32;;;;;;;11.00;5.20;;;;;;;21.85;46.56;151508.50;4929248;28;20233;-53
2023/10/03 02:22:05;;;;;;;10.27;5.37;;;;;;;21.93;46.26;151527.28;4931862;28;20662;-53
2023/10/03 02:24:32;;;;;;;11.90;4.80;;;;;;;21.92;46.80;151524.78;4928633;28;20249;-52
2023/10/03 02:27:06;;;;;;;12.30;4.57;;;;;;;21.65;47.74;151460.84;4919279;28;20268;-55
2023/10/03 02:29:34;;;;;;;9.03;4.50;;;;;;;21.63;47.45;151454.59;4913490;28;20228;-55
2023/10/03 02:32:07;;;;;;;14.30;4.93;;;;;;;21.87;46.49;151512.22;4932443;28;20245;-54
2023/10/03 02:34:34;;;;;;;8.03;4.60;;;;;;;21.67;47.12;151464.63;4915867;28;20219;-52
2023/10/03 02:37:04;;;;;;;9.93;4.90;;;;;;;21.65;47.56;151460.84;4931184;28;20296;-53
2023/10/03 02:39:36;;;;;;;11.03;4.97;;;;;;;22.06;45.16;151559.88;4914774;28;20239;-52
2023/10/03 02:42:05;;;;;;;10.93;5.00;;;;;;;22.33;44.77;151625.13;4934894;28;21140;-54
2023/10/03 02:44:33;;;;;;;7.27;4.33;;;;;;;22.46;44.24;151656.50;4921067;28;20226;-55
2023/10/03 02:47:05;;;;;;;8.53;5.00;;;;;;;22.29;45.10;151615.06;4921248;28;20290;-54
2023/10/03 02:49:32;;;;;;;12.10;5.07;;;;;;;22.21;45.88;151596.28;4926550;28;20232;-53
2023/10/03 02:52:05;;;;;;;9.27;4.90;;;;;;;22.09;45.75;151567.41;4921381;28;20241;-55
2023/10/03 02:54:32;;;;;;;13.23;5.30;;;;;;;22.50;44.11;151665.28;4917236;28;20297;-54
2023/10/03 02:57:04;;;;;;;11.37;5.00;;;;;;;22.30;44.85;151616.31;4934821;28;20274;-53
2023/10/03 02:59:31;;;;;;;11.17;4.93;;;;;;;22.32;45.03;151622.59;4917570;28;20254;-52
2023/10/03 03:02:06;;;;;;;9.77;5.10;;;;;;;22.24;45.45;151603.81;4925013;28;20242;-56
2023/10/03 03:04:34;;;;;;;8.23;4.63;;;;;;;22.35;45.33;151628.84;4920243;28;20248;-56
2023/10/03 03:07:04;;;;;;;13.47;5.00;;;;;;;22.21;45.61;151595.00;4925286;28;20236;-56
2023/10/03 03:09:35;;;;;;;10.27;5.20;;;;;;;22.36;45.45;151631.34;4934521;28;20234;-56
2023/10/03 03:12:06;;;;;;;11.87;5.10;;;;;;;22.34;45.14;151627.63;4918543;28;20247;-56
2023/10/03 03:14:33;;;;;;;9.80;5.37;;;;;;;22.30;45.18;151616.31;4921408;28;20252;-56
2023/10/03 03:17:13;;;;;;;9.13;5.27;;;;;;;22.54;44.44;151676.56;4922809;28;20259;-54
2023/10/03 03:19:40;;;;;;;10.17;4.77;;;;;;;22.54;44.32;151676.56;4921156;28;20434;-53
2023/10/03 03:22:09;;;;;;;7.93;4.50;;;;;;;22.35;45.15;151628.84;4920359;28;20242;-54
2023/10/03 03:24:36;;;;;;;11.00;5.43;;;;;;;22.24;45.63;151603.81;4918258;28;20283;-54
2023/10/03 03:27:11;;;;;;;10.23;4.80;;;;;;;22.19;45.79;151590.00;4921166;28;20238;-55
2023/10/03 03:29:47;;;;;;;7.97;4.70;;;;;;;22.54;44.84;151675.34;4917202;28;20231;-54
2023/10/03 03:32:17;;;;;;;8.77;4.50;;;;;;;22.40;45.39;151641.38;5124504;23;20239;-53
2023/10/03 03:34:45;;;;;;;7.77;4.70;;;;;;;22.11;46.42;151572.44;4919062;28;20374;-52
2023/10/03 03:37:21;;;;;;;10.30;4.73;;;;;;;22.33;45.91;151625.13;4916484;28;20266;-53
2023/10/03 03:39:53;;;;;;;11.17;5.03;;;;;;;22.22;45.96;151598.78;4916678;29;20640;-54
2023/10/03 03:42:22;;;;;;;10.17;5.03;;;;;;;22.30;46.15;151616.31;4917692;28;20233;-56
2023/10/03 03:44:48;;;;;;;9.87;4.77;;;;;;;22.22;46.10;151597.50;4920037;28;20263;-55
2023/10/03 03:47:18;;;;;;;11.10;4.60;;;;;;;22.45;45.64;151653.97;4918901;28;20242;-56
2023/10/03 03:49:46;;;;;;;8.87;5.00;;;;;;;22.39;45.74;151638.88;4915852;28;20236;-56
2023/10/03 03:52:16;;;;;;;11.57;5.70;;;;;;;22.27;46.97;151611.28;4916392;28;20247;-56
2023/10/03 03:54:43;;;;;;;9.50;4.97;;;;;;;22.23;46.55;151601.31;4916469;28;20251;-56
2023/10/03 03:57:11;;;;;;;10.17;5.20;;;;;;;22.52;45.58;151670.31;4917860;28;20235;-54
2023/10/03 03:59:38;;;;;;;8.30;5.23;;;;;;;22.72;45.42;151718.00;4915904;28;20244;-54
2023/10/03 04:02:04;;;;;;;8.80;4.50;;;;;;;22.61;45.79;151692.91;4916510;28;20237;-56
2023/10/03 04:04:33;;;;;;;8.90;4.80;;;;;;;22.41;46.02;151643.91;4917525;28;20246;-56
2023/10/03 04:07:04;;;;;;;11.07;5.63;;;;;;;22.36;46.75;151631.34;4921089;28;20241;-56
2023/10/03 04:09:31;;;;;;;10.03;4.80;;;;;;;22.44;46.00;151650.19;4914517;28;20237;-56
2023/10/03 04:12:04;;;;;;;9.80;5.67;;;;;;;22.31;46.75;151618.81;4918440;28;20237;-55
2023/10/03 04:14:31;;;;;;;10.67;5.20;;;;;;;22.39;46.75;151640.16;4914832;28;20233;-55
2023/10/03 04:17:23;;;;;;;10.10;5.60;;;;;;;22.51;46.22;151669.03;4919813;28;20233;-53
2023/10/03 04:19:51;;;;;;;9.30;4.23;;;;;;;22.18;47.85;151588.75;4931207;28;20852;-55
2023/10/03 04:22:18;;;;;;;14.53;5.13;;;;;;;22.52;46.37;151670.31;4925891;28;20633;-54
2023/10/03 04:24:44;;;;;;;10.80;5.37;;;;;;;22.57;46.50;151682.84;4917511;28;20699;-55
2023/10/03 04:27:13;;;;;;;10.90;4.70;;;;;;;22.56;46.80;151681.59;4918388;28;20224;-55
2023/10/03 04:29:39;;;;;;;11.90;5.30;;;;;;;22.46;47.66;151656.50;4918244;28;20713;-56
2023/10/03 04:32:07;;;;;;;12.27;5.87;;;;;;;22.39;47.26;151638.88;4917791;28;20602;-53
2023/10/03 04:34:34;;;;;;;12.83;5.03;;;;;;;22.38;47.64;151637.66;4916263;28;20586;-54
2023/10/03 04:37:06;;;;;;;13.63;5.53;;;;;;;22.43;47.34;151648.91;4920107;28;20736;-55
2023/10/03 04:39:35;;;;;;;9.47;5.10;;;;;;;22.44;47.58;151650.19;4917511;28;20227;-56
2023/10/03 04:42:06;;;;;;;12.40;5.47;;;;;;;22.32;47.81;151621.31;4921435;28;20249;-53
2023/10/03 04:44:34;;;;;;;8.90;4.70;;;;;;;22.27;47.96;151610.06;4917204;28;20234;-52
2023/10/03 04:47:04;;;;;;;9.73;4.70;;;;;;;22.20;48.34;151592.50;4916450;28;20234;-56
2023/10/03 04:49:31;;;;;;;9.87;5.07;;;;;;;22.30;48.23;151617.59;4917258;28;20309;-55
2023/10/03 04:52:24;;;;;;;10.60;5.23;;;;;;;22.25;48.40;151606.31;4916500;28;20963;-56
2023/10/03 04:54:51;;;;;;;8.43;5.33;;;;;;;22.10;49.09;151569.91;4915607;28;20233;-54
2023/10/03 04:57:18;;;;;;;11.03;5.30;;;;;;;22.25;48.11;151605.03;4918734;28;20722;-56
2023/10/03 04:59:45;;;;;;;10.07;5.17;;;;;;;22.20;48.55;151593.78;4913255;28;20241;-54
2023/10/03 05:02:11;;;;;;;13.27;4.90;;;;;;;22.18;48.73;151588.75;4915744;28;20257;-54
2023/10/03 05:04:40;;;;;;;11.70;4.80;;;;;;;22.27;48.37;151611.28;4916260;28;20298;-54
2023/10/03 05:07:10;;;;;;;8.90;4.93;;;;;;;22.28;48.30;151612.56;4918641;28;20252;-54
2023/10/03 05:09:37;;;;;;;11.53;5.40;;;;;;;22.24;48.12;151602.53;4914840;28;20293;-56
2023/10/03 05:12:05;;;;;;;8.63;5.17;;;;;;;22.21;48.61;151596.28;4917245;28;20881;-56
2023/10/03 05:14:32;;;;;;;11.83;5.27;;;;;;;22.09;48.74;151567.41;4914323;28;20240;-55
2023/10/03 05:17:05;;;;;;;11.73;5.30;;;;;;;22.03;49.10;151552.38;4917759;28;20700;-55
2023/10/03 05:19:31;;;;;;;10.60;5.37;;;;;;;22.08;49.16;151563.69;4916256;28;20794;-54
2023/10/03 05:22:05;;;;;;;8.60;4.90;;;;;;;22.05;49.55;151556.16;4916536;28;20237;-55
2023/10/03 05:24:33;;;;;;;9.67;5.20;;;;;;;22.16;48.97;151582.47;4913671;28;20230;-56
2023/10/03 05:27:07;;;;;;;11.57;5.10;;;;;;;22.17;49.15;151586.25;4917938;28;20693;-54
2023/10/03 05:29:33;;;;;;;12.23;5.13;;;;;;;22.00;50.17;151543.59;4914214;28;20690;-55
2023/10/03 05:32:05;;;;;;;9.93;5.40;;;;;;;22.01;49.88;151546.13;4916852;28;20233;-55
2023/10/03 05:34:32;;;;;;;9.63;5.37;;;;;;;22.18;48.93;151588.75;4915533;28;20228;-55
2023/10/03 05:37:04;;;;;;;8.30;4.80;;;;;;;22.00;49.79;151544.84;4917476;28;20255;-55
2023/10/03 05:39:31;;;;;;;11.63;5.93;;;;;;;22.08;49.57;151563.69;4912596;28;20217;-56
2023/10/03 05:42:05;;;;;;;11.03;5.50;;;;;;;21.92;50.44;151526.06;4924155;28;20283;-55
2023/10/03 05:44:32;;;;;;;13.47;5.60;;;;;;;21.90;50.17;151519.75;4911027;28;20713;-56
2023/10/03 05:47:05;;;;;;;10.50;4.83;;;;;;;21.97;50.32;151537.31;4916908;28;20269;-54
2023/10/03 05:49:32;;;;;;;10.93;5.10;;;;;;;21.89;50.65;151517.25;4928251;28;20269;-55
2023/10/03 05:52:06;;;;;;;10.73;5.63;;;;;;;21.92;50.83;151524.78;4919974;28;20226;-54
2023/10/03 05:54:33;;;;;;;8.80;5.00;;;;;;;22.11;50.17;151571.19;4915195;28;20233;-53
2023/10/03 05:57:05;;;;;;;9.80;5.27;;;;;;;22.31;49.54;151618.81;4916664;28;20234;-53
2023/10/03 05:59:32;;;;;;;11.40;5.60;;;;;;;22.14;50.21;151577.44;4914343;28;20216;-54
2023/10/03 06:02:04;;;;;;;9.00;4.93;;;;;;;22.14;50.43;151578.72;4916360;28;20452;-54
2023/10/03 06:04:36;;;;;;;10.47;5.30;;;;;;;21.93;51.72;151528.56;4912293;28;20243;-54
2023/10/03 06:07:06;;;;;;;10.13;5.20;;;;;;;22.17;50.81;151586.25;4916578;28;20224;-54
2023/10/03 06:09:33;;;;;;;9.80;5.20;;;;;;;22.11;51.04;151571.19;4913963;28;20402;-54
2023/10/03 06:12:06;;;;;;;10.00;5.90;;;;;;;22.20;51.16;151592.50;4917423;28;20751;-55
2023/10/03 06:14:33;;;;;;;10.07;5.50;;;;;;;22.18;51.03;151587.47;4914220;28;20247;-53
2023/10/03 06:17:04;;;;;;;7.77;4.77;;;;;;;22.36;49.99;151632.63;4917473;28;20236;-56
2023/10/03 06:19:31;;;;;;;9.43;5.23;;;;;;;22.38;50.47;151637.66;4914664;28;20224;-56
2023/10/03 06:22:05;;;;;;;9.93;5.50;;;;;;;22.24;51.29;151602.53;4933659;28;20772;-56
2023/10/03 06:24:33;;;;;;;10.23;5.47;;;;;;;22.21;51.34;151596.28;4913936;28;20220;-55
2023/10/03 06:27:09;;;;;;;9.67;4.97;;;;;;;22.00;53.07;151544.84;4914881;28;20705;-56
2023/10/03 06:29:35;;;;;;;9.67;5.00;;;;;;;21.91;53.58;151522.25;4913980;28;20318;-56
2023/10/03 06:32:04;;;;;;;11.52;5.65;;;;;;;21.99;52.68;151542.31;4879574;28;1142290;-56
2023/10/03 06:34:31;;;;;;;11.23;4.93;;;;;;;21.94;53.45;151531.06;4915701;28;20239;-55
2023/10/03 06:37:05;;;;;;;9.43;4.80;;;;;;;21.95;53.97;151532.28;4919753;28;20237;-56
2023/10/03 06:39:32;;;;;;;12.23;5.30;;;;;;;22.11;52.63;151572.44;4912649;28;20224;-56
2023/10/03 06:42:25;;;;;;;12.27;5.73;;;;;;;22.09;53.36;151566.19;4915254;28;20228;-54
2023/10/03 06:44:52;;;;;;;9.80;5.37;;;;;;;22.10;53.09;151568.69;4917838;28;20238;-55
2023/10/03 06:47:20;;;;;;;8.53;4.87;;;;;;;22.02;54.75;151549.84;4917433;28;20236;-55
2023/10/03 06:49:47;;;;;;;9.33;5.00;;;;;;;21.92;55.17;151526.06;4929615;28;20238;-56
2023/10/03 06:52:13;;;;;;;10.80;5.07;;;;;;;21.92;54.54;151526.06;4917226;28;20247;-55
2023/10/03 06:54:42;;;;;;;7.50;4.70;;;;;;;21.92;54.52;151524.78;4930762;28;20246;-53
2023/10/03 06:57:10;;;;;;;9.53;4.63;;;;;;;21.92;53.91;151524.78;4918259;28;20236;-54
2023/10/03 06:59:38;;;;;;;9.50;5.03;;;;;;;21.89;54.81;151517.25;4915358;28;20238;-55
2023/10/03 07:02:04;;;;;;;10.53;5.20;;;;;;;22.10;53.53;151568.69;4918681;28;20257;-55
2023/10/03 07:04:31;;;;;;;9.93;5.10;;;;;;;22.05;54.53;151557.38;4922642;28;20266;-56
2023/10/03 07:07:22;;;;;;;13.27;4.67;;;;;;;22.01;55.08;151546.13;4909439;28;20436;-55
2023/10/03 07:09:49;;;;;;;9.70;5.27;;;;;;;21.99;55.28;151541.09;4918333;28;20234;-56
2023/10/03 07:12:17;;;;;;;9.17;5.10;;;;;;;22.00;54.58;151544.84;4919116;28;20241;-55
2023/10/03 07:14:46;;;;;;;14.37;5.30;;;;;;;22.06;54.46;151559.88;4913649;28;20268;-55
2023/10/03 07:17:14;;;;;;;8.47;4.80;;;;;;;22.08;54.89;151563.69;4917671;28;20247;-55
2023/10/03 07:19:41;;;;;;;11.57;5.07;;;;;;;22.04;56.01;151553.63;4916272;28;20713;-53
2023/10/03 07:22:08;;;;;;;10.37;5.07;;;;;;;22.00;55.50;151544.84;4917304;28;20225;-56
2023/10/03 07:24:39;;;;;;;9.90;5.60;;;;;;;22.00;55.74;151543.59;4914215;28;20235;-56
2023/10/03 07:27:07;;;;;;;9.57;5.57;;;;;;;22.00;56.10;151543.59;4914930;28;20240;-56
2023/10/03 07:29:42;;;;;;;8.87;5.40;;;;;;;22.04;55.01;151553.63;4931689;28;20228;-55
2023/10/03 07:32:12;;;;;;;12.20;4.93;;;;;;;21.97;56.64;151538.59;4918844;28;20276;-56
2023/10/03 07:34:42;;;;;;;12.50;5.43;;;;;;;22.02;55.90;151548.63;4917285;28;20700;-56
2023/10/03 07:37:09;;;;;;;11.93;5.47;;;;;;;21.95;57.34;151532.28;4922766;28;20236;-55
2023/10/03 07:39:36;;;;;;;9.67;4.73;;;;;;;21.89;57.60;151517.25;4915264;28;20228;-56
2023/10/03 07:42:05;;;;;;;11.03;5.63;;;;;;;21.90;58.05;151519.75;4922873;28;20301;-53
2023/10/03 07:44:32;;;;;;;12.10;4.87;;;;;;;22.05;55.53;151556.16;4919452;28;20240;-56
2023/10/03 07:47:04;;;;;;;9.60;4.77;;;;;;;22.12;55.02;151574.94;4919977;28;20240;-55
2023/10/03 07:49:32;;;;;;;8.87;5.13;;;;;;;22.20;54.79;151592.50;4924304;28;20225;-55
2023/10/03 07:52:05;;;;;;;7.70;4.70;;;;;;;22.26;55.04;151608.78;4918477;28;20582;-53
2023/10/03 07:54:35;;;;;;;8.13;4.80;;;;;;;22.37;54.75;151635.16;4916526;28;20223;-55
2023/10/03 07:57:05;;;;;;;8.83;5.27;;;;;;;22.42;54.04;151646.41;4920438;28;20330;-55
2023/10/03 07:59:32;;;;;;;8.07;4.87;;;;;;;22.46;54.05;151656.50;4916790;28;20593;-56
2023/10/03 08:02:10;;;;;;;11.17;5.70;;;;;;;22.53;53.97;151672.81;4920534;28;20241;-55
2023/10/03 08:04:40;;;;;;;8.77;4.90;;;;;;;22.61;53.39;151692.91;4914201;28;20225;-56
2023/10/03 08:07:08;;;;;;;7.43;4.83;;;;;;;22.74;52.36;151724.22;4919320;28;20561;-55
2023/10/03 08:09:35;;;;;;;10.57;5.43;;;;;;;22.78;53.38;151734.28;4917749;28;20719;-55
2023/10/03 08:12:11;;;;;;;11.33;4.63;;;;;;;22.87;53.28;151754.34;4918192;28;20314;-54
2023/10/03 08:14:39;;;;;;;10.00;4.93;;;;;;;22.95;53.77;151775.66;4935236;28;20235;-55
2023/10/03 08:17:06;;;;;;;10.67;4.63;;;;;;;23.03;50.88;151794.50;4919666;28;20439;-56
2023/10/03 08:19:33;;;;;;;8.20;4.80;;;;;;;23.20;49.31;151835.88;4918279;28;20248;-54
2023/10/03 08:22:12;;;;;;;6.93;4.27;;;;;;;23.40;49.46;151884.84;4922918;28;20242;-55
2023/10/03 08:24:43;;;;;;;8.70;4.80;;;;;;;23.63;49.54;151940.09;4916226;28;20225;-56
2023/10/03 08:27:18;;;;;;;8.73;4.80;;;;;;;23.71;49.77;151958.94;4920004;28;20246;-55
2023/10/03 08:29:45;;;;;;;8.07;4.63;;;;;;;23.70;47.64;151956.44;4915684;28;20239;-54
2023/10/03 08:32:11;;;;;;;9.40;4.97;;;;;;;23.86;47.88;151996.53;4921098;28;20707;-53
2023/10/03 08:34:44;;;;;;;9.43;4.17;;;;;;;24.12;48.20;152058.13;4924386;28;20237;-55
2023/10/03 08:37:21;;;;;;;9.97;5.33;;;;;;;24.31;48.15;152105.84;4918844;28;20233;-55
2023/10/03 08:39:48;;;;;;;7.97;4.40;;;;;;;24.42;47.12;152130.91;4915549;28;20234;-54
2023/10/03 08:42:18;;;;;;;10.10;4.97;;;;;;;24.62;48.02;152181.16;4916925;28;20304;-53
2023/10/03 08:44:51;;;;;;;7.40;5.10;;;;;;;24.88;47.44;152242.75;4915320;28;20244;-55
2023/10/03 08:47:22;;;;;;;8.90;4.90;;;;;;;24.60;47.37;152174.88;4918671;28;20736;-55
2023/10/03 08:49:56;;;;;;;9.13;4.47;;;;;;;24.62;48.50;152181.16;4914726;28;20237;-51
2023/10/03 08:52:39;;;;;;;7.93;4.57;;;;;;;24.71;48.37;152201.25;4913624;28;20726;-51
2023/10/03 08:55:08;;;;;;;8.53;5.07;;;;;;;24.33;47.09;152109.59;4918233;28;20244;-53
2023/10/03 08:57:36;;;;;;;9.50;4.77;;;;;;;24.29;48.55;152100.81;4919508;28;20257;-52
2023/10/03 09:00:05;;;;;;;10.47;4.67;;;;;;;24.37;48.58;152119.63;4919272;28;20230;-51
2023/10/03 09:02:40;;;;;;;7.60;4.60;;;;;;;24.22;48.31;152081.97;4916277;28;20622;-54
2023/10/03 09:05:15;;;;;;;9.30;4.73;;;;;;;24.21;48.19;152079.44;4922857;28;20244;-53
2023/10/03 09:07:44;;;;;;;7.97;4.63;;;;;;;24.45;47.26;152138.44;4914637;28;20594;-53
2023/10/03 09:10:22;;;;;;;8.40;4.93;;;;;;;24.70;47.09;152198.72;4921075;28;20234;-54
2023/10/03 09:12:50;;;;;;;8.47;4.63;;;;;;;24.82;48.05;152227.69;4907510;28;20232;-57
2023/10/03 09:15:17;;;;;;;11.07;5.33;;;;;;;24.84;47.05;152233.94;4919161;28;20250;-57
2023/10/03 09:17:44;;;;;;;8.50;4.70;;;;;;;24.77;48.26;152216.34;4914311;28;20229;-54
2023/10/03 09:20:19;;;;;;;12.47;5.03;;;;;;;24.88;48.59;152242.75;4916048;28;20221;-54
2023/10/03 09:22:47;;;;;;;7.37;4.90;;;;;;;24.90;47.07;152247.78;4912651;28;20897;-54
2023/10/03 09:25:16;;;;;;;7.50;5.17;;;;;;;24.94;46.36;152257.78;4916630;28;20925;-54
2023/10/03 09:27:42;;;;;;;8.20;4.63;;;;;;;25.28;46.75;152340.69;4914056;28;20245;-53
2023/10/03 09:30:22;;;;;;;8.50;4.80;;;;;;;25.51;45.83;152396.00;4916639;28;20324;-53
2023/10/03 09:32:50;;;;;;;8.97;4.40;;;;;;;25.65;45.16;152429.91;4912232;28;20241;-53
2023/10/03 09:35:17;;;;;;;6.30;4.67;;;;;;;25.84;46.00;152476.44;4918997;28;20228;-56
2023/10/03 09:37:48;;;;;;;10.67;4.67;;;;;;;26.07;44.34;152532.97;4915446;28;20254;-54
2023/10/03 09:40:19;;;;;;;10.03;4.60;;;;;;;25.82;45.18;152471.41;4917247;28;20246;-52
2023/10/03 09:42:48;;;;;;;8.53;4.90;;;;;;;25.55;46.89;152406.06;4913640;28;20242;-52
2023/10/03 09:45:18;;;;;;;6.00;4.40;;;;;;;25.38;47.32;152364.56;4920568;28;20228;-54
2023/10/03 09:47:46;;;;;;;9.07;4.93;;;;;;;25.41;46.95;152370.84;4912918;28;20588;-54
2023/10/03 09:50:14;;;;;;;8.03;4.40;;;;;;;25.11;47.43;152297.97;4932600;28;20239;-52
2023/10/03 09:52:44;;;;;;;7.60;4.47;;;;;;;25.44;47.11;152378.38;4913843;28;20240;-52
2023/10/03 09:57:59;;;;;;;9.70;4.97;;;;;;;25.10;47.48;152296.75;4913614;28;20294;-52
2023/10/03 10:00:38;;;;;;;8.33;5.03;;;;;;;24.30;49.58;152103.34;4911782;28;20343;-54
2023/10/03 10:03:07;;;;;;;10.43;5.37;;;;;;;24.34;49.74;152110.88;4916749;28;20257;-53
2023/10/03 10:05:34;;;;;;;9.43;4.90;;;;;;;24.24;49.48;152088.25;4916531;28;20227;-53
2023/10/03 10:08:09;;;;;;;8.87;4.90;;;;;;;24.20;50.58;152078.22;4919073;28;20241;-54
2023/10/03 10:10:36;;;;;;;11.53;5.73;;;;;;;23.87;51.10;151999.06;4915814;28;20237;-54
2023/10/03 10:13:12;;;;;;;14.97;5.63;;;;;;;23.84;51.58;151990.28;4914791;28;20236;-54
2023/10/03 10:16:07;;;;;;;8.43;5.43;;;;;;;23.83;51.94;151989.06;4916506;28;20228;-53
2023/10/03 10:19:00;;;;;;;10.60;5.17;;;;;;;23.99;52.27;152028.00;4916604;28;20241;-55
2023/10/03 10:21:30;;;;;;;9.63;5.30;;;;;;;23.82;51.88;151985.28;4915124;28;20559;-55
2023/10/03 10:24:25;;;;;;;9.80;5.57;;;;;;;23.99;51.75;152026.72;4919604;28;20234;-56
2023/10/03 10:26:53;;;;;;;7.73;5.23;;;;;;;24.03;52.81;152036.78;4914914;28;20262;-54
2023/10/03 10:29:24;;;;;;;8.50;5.67;;;;;;;23.98;53.20;152025.44;4918816;28;20234;-54
2023/10/03 10:31:57;;;;;;;12.00;6.10;;;;;;;23.88;53.92;152001.56;4915832;28;20242;-54
2023/10/03 10:34:35;;;;;;;9.63;5.87;;;;;;;23.77;54.64;151972.72;4912721;28;20232;-56
2023/10/03 10:37:09;;;;;;;11.57;6.13;;;;;;;23.50;56.42;151907.44;4914986;28;20256;-55
2023/10/03 10:40:09;;;;;;;10.43;6.17;;;;;;;23.54;56.09;151917.50;4913488;28;20226;-54
2023/10/03 10:42:55;;;;;;;9.77;6.17;;;;;;;23.54;56.85;151917.50;4910894;28;20781;-55
2023/10/03 10:45:24;;;;;;;10.43;6.00;;;;;;;23.48;57.52;151903.69;4913491;28;20722;-54
2023/10/03 10:47:51;;;;;;;11.83;6.10;;;;;;;23.47;56.39;151901.19;4917521;28;20234;-52
2023/10/03 10:50:18;;;;;;;14.67;5.93;;;;;;;23.31;58.35;151861.03;4915627;28;20233;-55
2023/10/03 10:52:56;;;;;;;12.13;6.07;;;;;;;23.24;58.55;151844.75;4917075;28;20598;-54
2023/10/03 10:55:23;;;;;;;11.77;5.93;;;;;;;23.13;58.80;151819.59;4913486;28;20235;-54
2023/10/03 10:58:08;;;;;;;12.60;6.43;;;;;;;23.09;59.09;151809.56;4914651;28;20280;-55
2023/10/03 11:00:39;;;;;;;14.43;6.00;;;;;;;22.99;59.25;151785.69;4912857;28;20670;-55
2023/10/03 11:03:07;;;;;;;10.70;6.50;;;;;;;22.84;61.49;151748.06;4917761;28;20238;-54
2023/10/03 11:05:46;;;;;;;14.13;6.50;;;;;;;22.73;60.86;151720.50;4918858;28;20252;-55
2023/10/03 11:08:13;;;;;;;10.70;6.33;;;;;;;22.75;61.06;151726.75;4924270;28;20241;-56
2023/10/03 11:10:52;;;;;;;13.07;6.80;;;;;;;22.74;61.39;151723.00;4920319;28;20232;-56
2023/10/03 11:13:19;;;;;;;13.93;6.70;;;;;;;22.75;61.33;151726.75;4923926;28;20241;-55
2023/10/03 11:15:50;;;;;;;10.03;6.40;;;;;;;22.84;61.02;151749.34;4921924;28;20234;-56
2023/10/03 11:18:18;;;;;;;14.07;6.37;;;;;;;22.84;61.11;151748.06;4920681;29;20705;-56
2023/10/03 11:20:47;;;;;;;9.50;6.33;;;;;;;22.80;61.34;151739.28;4922134;28;21175;-56
2023/10/03 11:23:18;;;;;;;10.73;7.10;;;;;;;22.83;61.72;151746.81;4920105;28;20240;-54
2023/10/03 11:25:53;;;;;;;15.47;6.83;;;;;;;22.79;62.24;151736.78;4914912;28;20247;-55
2023/10/03 11:28:20;;;;;;;13.13;6.80;;;;;;;22.88;61.84;151758.09;4914723;28;20325;-54
2023/10/03 11:31:01;;;;;;;13.80;6.47;;;;;;;22.78;63.26;151733.03;4919398;28;20747;-55
2023/10/03 11:33:28;;;;;;;13.50;7.27;;;;;;;22.72;63.91;151719.22;4911225;28;20271;-58
2023/10/03 11:35:55;;;;;;;10.60;6.30;;;;;;;22.77;64.49;151730.53;4917482;28;20594;-54
2023/10/03 11:38:22;;;;;;;10.27;6.50;;;;;;;22.88;64.50;151756.84;4914549;28;20236;-55